sensor_id;sensor_type;location;lat;lon;timestamp;temperature;humidity
27559;DHT22;15002;52.028;5.670;2023-07-08T00:00:53;23.10;85.60
27559;DHT22;15002;52.028;5.670;2023-07-08T00:03:19;23.00;86.00
27559;DHT22;15002;52.028;5.670;2023-07-08T00:05:46;23.10;85.60
27559;DHT22;15002;52.028;5.670;2023-07-08T00:08:14;23.20;85.20
27559;DHT22;15002;52.028;5.670;2023-07-08T00:10:39;23.00;86.10
27559;DHT22;15002;52.028;5.670;2023-07-08T00:13:05;23.00;86.00
27559;DHT22;15002;52.028;5.670;2023-07-08T00:15:32;23.10;85.80
27559;DHT22;15002;52.028;5.670;2023-07-08T00:18:01;22.70;86.70
27559;DHT22;15002;52.028;5.670;2023-07-08T00:20:39;22.90;86.20
27559;DHT22;15002;52.028;5.670;2023-07-08T00:23:05;22.90;86.40
27559;DHT22;15002;52.028;5.670;2023-07-08T00:25:31;23.10;86.40
27559;DHT22;15002;52.028;5.670;2023-07-08T00:27:58;23.10;85.60
27559;DHT22;15002;52.028;5.670;2023-07-08T00:30:29;23.30;85.40
27559;DHT22;15002;52.028;5.670;2023-07-08T00:32:56;23.20;85.60
27559;DHT22;15002;52.028;5.670;2023-07-08T00:35:55;23.20;85.90
27559;DHT22;15002;52.028;5.670;2023-07-08T00:38:15;23.00;86.20
27559;DHT22;15002;52.028;5.670;2023-07-08T00:40:58;23.00;86.80
27559;DHT22;15002;52.028;5.670;2023-07-08T00:43:51;22.70;87.40
27559;DHT22;15002;52.028;5.670;2023-07-08T00:51:34;22.40;89.10
27559;DHT22;15002;52.028;5.670;2023-07-08T00:54:00;22.40;88.80
27559;DHT22;15002;52.028;5.670;2023-07-08T00:56:39;22.40;89.30
27559;DHT22;15002;52.028;5.670;2023-07-08T00:59:10;22.60;88.70
27559;DHT22;15002;52.028;5.670;2023-07-08T01:01:40;22.40;89.30
27559;DHT22;15002;52.028;5.670;2023-07-08T01:04:14;22.40;89.50
27559;DHT22;15002;52.028;5.670;2023-07-08T01:06:46;22.30;89.80
27559;DHT22;15002;52.028;5.670;2023-07-08T01:09:14;22.40;89.60
27559;DHT22;15002;52.028;5.670;2023-07-08T01:11:41;22.30;90.00
27559;DHT22;15002;52.028;5.670;2023-07-08T01:14:10;22.30;90.20
27559;DHT22;15002;52.028;5.670;2023-07-08T01:16:38;22.30;90.20
27559;DHT22;15002;52.028;5.670;2023-07-08T01:19:04;22.20;90.40
27559;DHT22;15002;52.028;5.670;2023-07-08T01:21:44;21.90;90.80
27559;DHT22;15002;52.028;5.670;2023-07-08T01:24:10;21.80;91.20
27559;DHT22;15002;52.028;5.670;2023-07-08T01:26:40;21.70;91.40
27559;DHT22;15002;52.028;5.670;2023-07-08T01:29:08;21.80;91.50
27559;DHT22;15002;52.028;5.670;2023-07-08T01:31:34;21.80;91.60
27559;DHT22;15002;52.028;5.670;2023-07-08T01:34:00;21.80;91.70
27559;DHT22;15002;52.028;5.670;2023-07-08T01:36:31;21.80;91.80
27559;DHT22;15002;52.028;5.670;2023-07-08T01:38:58;21.90;91.70
27559;DHT22;15002;52.028;5.670;2023-07-08T01:41:24;22.00;91.70
27559;DHT22;15002;52.028;5.670;2023-07-08T01:43:50;21.80;91.80
27559;DHT22;15002;52.028;5.670;2023-07-08T01:46:20;21.90;91.80
27559;DHT22;15002;52.028;5.670;2023-07-08T01:48:52;21.90;91.80
27559;DHT22;15002;52.028;5.670;2023-07-08T01:51:18;21.60;92.50
27559;DHT22;15002;52.028;5.670;2023-07-08T01:53:45;21.70;92.60
27559;DHT22;15002;52.028;5.670;2023-07-08T01:56:12;21.80;92.20
27559;DHT22;15002;52.028;5.670;2023-07-08T01:58:38;21.80;92.50
27559;DHT22;15002;52.028;5.670;2023-07-08T02:01:05;21.70;92.80
27559;DHT22;15002;52.028;5.670;2023-07-08T02:03:31;21.70;93.10
27559;DHT22;15002;52.028;5.670;2023-07-08T02:05:57;21.80;92.90
27559;DHT22;15002;52.028;5.670;2023-07-08T02:08:23;21.70;92.90
27559;DHT22;15002;52.028;5.670;2023-07-08T02:10:51;21.70;93.20
27559;DHT22;15002;52.028;5.670;2023-07-08T02:13:17;21.50;93.70
27559;DHT22;15002;52.028;5.670;2023-07-08T02:15:43;21.40;94.20
27559;DHT22;15002;52.028;5.670;2023-07-08T02:18:09;21.60;94.00
27559;DHT22;15002;52.028;5.670;2023-07-08T02:20:34;21.50;94.00
27559;DHT22;15002;52.028;5.670;2023-07-08T02:23:00;21.50;94.10
27559;DHT22;15002;52.028;5.670;2023-07-08T02:25:25;21.60;94.40
27559;DHT22;15002;52.028;5.670;2023-07-08T02:27:52;21.50;94.60
27559;DHT22;15002;52.028;5.670;2023-07-08T02:30:22;21.20;95.20
27559;DHT22;15002;52.028;5.670;2023-07-08T02:32:48;21.30;95.00
27559;DHT22;15002;52.028;5.670;2023-07-08T02:35:25;21.40;95.20
27559;DHT22;15002;52.028;5.670;2023-07-08T02:37:52;21.30;95.50
27559;DHT22;15002;52.028;5.670;2023-07-08T02:40:18;21.60;95.30
27559;DHT22;15002;52.028;5.670;2023-07-08T02:42:43;21.40;95.60
27559;DHT22;15002;52.028;5.670;2023-07-08T02:45:10;21.30;95.90
27559;DHT22;15002;52.028;5.670;2023-07-08T02:47:36;21.30;96.10
27559;DHT22;15002;52.028;5.670;2023-07-08T02:50:02;21.40;95.70
27559;DHT22;15002;52.028;5.670;2023-07-08T02:52:27;21.30;96.00
27559;DHT22;15002;52.028;5.670;2023-07-08T02:54:53;21.50;96.20
27559;DHT22;15002;52.028;5.670;2023-07-08T02:57:18;21.40;96.20
27559;DHT22;15002;52.028;5.670;2023-07-08T02:59:44;21.60;96.10
27559;DHT22;15002;52.028;5.670;2023-07-08T03:02:09;21.20;96.60
27559;DHT22;15002;52.028;5.670;2023-07-08T03:04:35;21.30;96.80
27559;DHT22;15002;52.028;5.670;2023-07-08T03:07:07;21.40;96.70
27559;DHT22;15002;52.028;5.670;2023-07-08T03:09:37;21.30;96.80
27559;DHT22;15002;52.028;5.670;2023-07-08T03:12:05;21.50;96.50
27559;DHT22;15002;52.028;5.670;2023-07-08T03:14:31;21.20;97.10
27559;DHT22;15002;52.028;5.670;2023-07-08T03:16:56;21.30;97.20
27559;DHT22;15002;52.028;5.670;2023-07-08T03:19:22;21.20;97.50
27559;DHT22;15002;52.028;5.670;2023-07-08T03:21:47;21.30;97.10
27559;DHT22;15002;52.028;5.670;2023-07-08T03:24:13;21.20;97.50
27559;DHT22;15002;52.028;5.670;2023-07-08T03:26:39;21.00;97.90
27559;DHT22;15002;52.028;5.670;2023-07-08T03:29:05;21.10;98.20
27559;DHT22;15002;52.028;5.670;2023-07-08T03:31:31;21.00;98.30
27559;DHT22;15002;52.028;5.670;2023-07-08T03:33:56;21.20;98.10
27559;DHT22;15002;52.028;5.670;2023-07-08T03:36:22;21.00;98.50
27559;DHT22;15002;52.028;5.670;2023-07-08T03:38:53;21.10;98.40
27559;DHT22;15002;52.028;5.670;2023-07-08T03:41:22;21.10;98.40
27559;DHT22;15002;52.028;5.670;2023-07-08T03:43:48;21.10;98.30
27559;DHT22;15002;52.028;5.670;2023-07-08T03:46:19;21.20;98.50
27559;DHT22;15002;52.028;5.670;2023-07-08T03:48:45;21.30;98.10
27559;DHT22;15002;52.028;5.670;2023-07-08T03:51:24;21.20;98.10
27559;DHT22;15002;52.028;5.670;2023-07-08T03:53:50;21.40;98.00
27559;DHT22;15002;52.028;5.670;2023-07-08T03:56:16;21.40;98.00
27559;DHT22;15002;52.028;5.670;2023-07-08T03:58:42;21.20;98.10
27559;DHT22;15002;52.028;5.670;2023-07-08T04:01:16;21.20;98.50
27559;DHT22;15002;52.028;5.670;2023-07-08T04:03:43;21.10;98.90
27559;DHT22;15002;52.028;5.670;2023-07-08T04:06:09;21.00;99.10
27559;DHT22;15002;52.028;5.670;2023-07-08T04:08:34;21.10;99.00
27559;DHT22;15002;52.028;5.670;2023-07-08T04:11:00;21.30;98.50
27559;DHT22;15002;52.028;5.670;2023-07-08T04:13:26;21.20;98.80
27559;DHT22;15002;52.028;5.670;2023-07-08T04:15:55;21.40;98.40
27559;DHT22;15002;52.028;5.670;2023-07-08T04:18:21;21.30;98.30
27559;DHT22;15002;52.028;5.670;2023-07-08T04:20:47;21.30;98.50
27559;DHT22;15002;52.028;5.670;2023-07-08T04:23:18;21.30;98.70
27559;DHT22;15002;52.028;5.670;2023-07-08T04:25:44;21.30;99.00
27559;DHT22;15002;52.028;5.670;2023-07-08T04:28:10;21.30;98.80
27559;DHT22;15002;52.028;5.670;2023-07-08T04:30:35;21.50;98.50
27559;DHT22;15002;52.028;5.670;2023-07-08T04:33:07;21.60;98.10
27559;DHT22;15002;52.028;5.670;2023-07-08T04:35:34;21.80;98.20
27559;DHT22;15002;52.028;5.670;2023-07-08T04:38:01;22.20;97.20
27559;DHT22;15002;52.028;5.670;2023-07-08T04:40:26;22.60;96.10
27559;DHT22;15002;52.028;5.670;2023-07-08T04:42:53;22.70;95.50
27559;DHT22;15002;52.028;5.670;2023-07-08T04:45:19;22.60;95.80
27559;DHT22;15002;52.028;5.670;2023-07-08T04:47:45;22.60;95.70
27559;DHT22;15002;52.028;5.670;2023-07-08T04:50:18;22.40;96.00
27559;DHT22;15002;52.028;5.670;2023-07-08T04:52:43;22.50;96.10
27559;DHT22;15002;52.028;5.670;2023-07-08T04:55:12;22.80;95.50
27559;DHT22;15002;52.028;5.670;2023-07-08T04:57:38;22.70;95.50
27559;DHT22;15002;52.028;5.670;2023-07-08T05:00:05;22.50;95.60
27559;DHT22;15002;52.028;5.670;2023-07-08T05:02:34;22.60;95.70
27559;DHT22;15002;52.028;5.670;2023-07-08T05:04:59;22.80;95.50
27559;DHT22;15002;52.028;5.670;2023-07-08T05:07:25;22.80;95.60
27559;DHT22;15002;52.028;5.670;2023-07-08T05:09:51;22.90;95.30
27559;DHT22;15002;52.028;5.670;2023-07-08T05:12:16;22.80;95.50
27559;DHT22;15002;52.028;5.670;2023-07-08T05:14:42;23.20;94.90
27559;DHT22;15002;52.028;5.670;2023-07-08T05:17:08;22.90;95.10
27559;DHT22;15002;52.028;5.670;2023-07-08T05:19:34;23.00;95.20
27559;DHT22;15002;52.028;5.670;2023-07-08T05:21:59;23.20;94.80
27559;DHT22;15002;52.028;5.670;2023-07-08T05:24:26;23.00;95.20
27559;DHT22;15002;52.028;5.670;2023-07-08T05:26:51;22.80;95.30
27559;DHT22;15002;52.028;5.670;2023-07-08T05:29:17;22.90;95.70
27559;DHT22;15002;52.028;5.670;2023-07-08T05:31:43;23.00;95.40
27559;DHT22;15002;52.028;5.670;2023-07-08T05:34:08;23.20;95.20
27559;DHT22;15002;52.028;5.670;2023-07-08T05:36:34;23.10;95.10
27559;DHT22;15002;52.028;5.670;2023-07-08T05:39:00;23.10;95.40
27559;DHT22;15002;52.028;5.670;2023-07-08T05:41:25;23.30;94.90
27559;DHT22;15002;52.028;5.670;2023-07-08T05:43:51;23.40;95.00
27559;DHT22;15002;52.028;5.670;2023-07-08T05:46:17;23.70;94.30
27559;DHT22;15002;52.028;5.670;2023-07-08T05:48:42;23.80;94.10
27559;DHT22;15002;52.028;5.670;2023-07-08T05:51:08;23.90;94.00
27559;DHT22;15002;52.028;5.670;2023-07-08T05:53:34;23.90;93.80
27559;DHT22;15002;52.028;5.670;2023-07-08T05:55:59;23.60;94.90
27559;DHT22;15002;52.028;5.670;2023-07-08T05:58:25;23.90;94.10
27559;DHT22;15002;52.028;5.670;2023-07-08T06:00:55;24.00;93.70
27559;DHT22;15002;52.028;5.670;2023-07-08T06:03:22;24.00;93.90
27559;DHT22;15002;52.028;5.670;2023-07-08T06:05:48;24.10;93.70
27559;DHT22;15002;52.028;5.670;2023-07-08T06:08:15;24.20;93.60
27559;DHT22;15002;52.028;5.670;2023-07-08T06:10:44;24.10;93.90
27559;DHT22;15002;52.028;5.670;2023-07-08T06:13:11;24.00;94.20
27559;DHT22;15002;52.028;5.670;2023-07-08T06:15:37;24.10;94.00
27559;DHT22;15002;52.028;5.670;2023-07-08T06:18:03;24.00;94.20
27559;DHT22;15002;52.028;5.670;2023-07-08T06:20:29;24.20;94.00
27559;DHT22;15002;52.028;5.670;2023-07-08T06:22:55;24.10;94.10
27559;DHT22;15002;52.028;5.670;2023-07-08T06:25:20;24.30;93.90
27559;DHT22;15002;52.028;5.670;2023-07-08T06:27:46;24.90;92.90
27559;DHT22;15002;52.028;5.670;2023-07-08T06:30:12;25.00;93.00
27559;DHT22;15002;52.028;5.670;2023-07-08T06:32:38;25.10;91.90
27559;DHT22;15002;52.028;5.670;2023-07-08T06:35:04;25.20;92.00
27559;DHT22;15002;52.028;5.670;2023-07-08T06:37:29;25.80;90.80
27559;DHT22;15002;52.028;5.670;2023-07-08T06:39:55;26.20;89.80
27559;DHT22;15002;52.028;5.670;2023-07-08T06:42:20;26.30;90.30
27559;DHT22;15002;52.028;5.670;2023-07-08T06:44:46;26.70;90.30
27559;DHT22;15002;52.028;5.670;2023-07-08T06:47:20;27.70;84.90
27559;DHT22;15002;52.028;5.670;2023-07-08T06:49:46;28.60;80.60
27559;DHT22;15002;52.028;5.670;2023-07-08T06:52:13;29.10;79.20
27559;DHT22;15002;52.028;5.670;2023-07-08T06:54:38;29.20;79.00
27559;DHT22;15002;52.028;5.670;2023-07-08T06:57:04;29.80;77.60
27559;DHT22;15002;52.028;5.670;2023-07-08T06:59:30;30.50;75.70
27559;DHT22;15002;52.028;5.670;2023-07-08T07:01:56;31.00;74.20
27559;DHT22;15002;52.028;5.670;2023-07-08T07:04:21;31.00;72.50
27559;DHT22;15002;52.028;5.670;2023-07-08T07:06:47;31.70;69.60
27559;DHT22;15002;52.028;5.670;2023-07-08T07:09:13;31.50;70.10
27559;DHT22;15002;52.028;5.670;2023-07-08T07:11:38;32.20;70.00
27559;DHT22;15002;52.028;5.670;2023-07-08T07:14:04;33.20;67.30
27559;DHT22;15002;52.028;5.670;2023-07-08T07:16:30;33.00;65.40
27559;DHT22;15002;52.028;5.670;2023-07-08T07:18:55;33.00;65.60
27559;DHT22;15002;52.028;5.670;2023-07-08T07:21:21;34.10;64.10
27559;DHT22;15002;52.028;5.670;2023-07-08T07:23:47;35.20;60.30
27559;DHT22;15002;52.028;5.670;2023-07-08T07:26:13;35.20;58.80
27559;DHT22;15002;52.028;5.670;2023-07-08T07:28:39;34.50;60.80
27559;DHT22;15002;52.028;5.670;2023-07-08T07:31:04;34.80;59.00
27559;DHT22;15002;52.028;5.670;2023-07-08T07:33:33;34.60;59.40
27559;DHT22;15002;52.028;5.670;2023-07-08T07:35:59;34.30;59.60
27559;DHT22;15002;52.028;5.670;2023-07-08T07:38:25;34.50;60.50
27559;DHT22;15002;52.028;5.670;2023-07-08T07:40:54;35.50;58.20
27559;DHT22;15002;52.028;5.670;2023-07-08T07:43:20;35.50;57.70
27559;DHT22;15002;52.028;5.670;2023-07-08T07:45:50;35.10;58.80
27559;DHT22;15002;52.028;5.670;2023-07-08T07:48:16;35.40;57.80
27559;DHT22;15002;52.028;5.670;2023-07-08T07:50:48;35.40;57.20
27559;DHT22;15002;52.028;5.670;2023-07-08T07:53:14;35.50;57.30
27559;DHT22;15002;52.028;5.670;2023-07-08T07:55:40;35.30;58.60
27559;DHT22;15002;52.028;5.670;2023-07-08T07:58:05;36.10;57.10
27559;DHT22;15002;52.028;5.670;2023-07-08T08:00:31;35.60;57.80
27559;DHT22;15002;52.028;5.670;2023-07-08T08:02:57;36.50;55.70
27559;DHT22;15002;52.028;5.670;2023-07-08T08:05:23;35.20;56.60
27559;DHT22;15002;52.028;5.670;2023-07-08T08:07:48;35.70;55.70
27559;DHT22;15002;52.028;5.670;2023-07-08T08:10:14;35.70;55.70
27559;DHT22;15002;52.028;5.670;2023-07-08T08:12:41;35.40;55.60
27559;DHT22;15002;52.028;5.670;2023-07-08T08:15:07;35.30;56.40
27559;DHT22;15002;52.028;5.670;2023-07-08T08:17:33;35.60;56.40
27559;DHT22;15002;52.028;5.670;2023-07-08T08:19:58;35.50;56.20
27559;DHT22;15002;52.028;5.670;2023-07-08T08:22:24;35.90;56.70
27559;DHT22;15002;52.028;5.670;2023-07-08T08:24:50;36.60;54.40
27559;DHT22;15002;52.028;5.670;2023-07-08T08:27:15;36.50;54.50
27559;DHT22;15002;52.028;5.670;2023-07-08T08:29:41;36.40;55.50
27559;DHT22;15002;52.028;5.670;2023-07-08T08:32:07;35.70;54.90
27559;DHT22;15002;52.028;5.670;2023-07-08T08:34:33;35.20;56.00
27559;DHT22;15002;52.028;5.670;2023-07-08T08:36:58;35.20;57.30
27559;DHT22;15002;52.028;5.670;2023-07-08T08:39:24;35.60;55.70
27559;DHT22;15002;52.028;5.670;2023-07-08T08:41:52;35.60;55.40
27559;DHT22;15002;52.028;5.670;2023-07-08T08:44:25;35.70;55.60
27559;DHT22;15002;52.028;5.670;2023-07-08T08:47:12;34.90;57.20
27559;DHT22;15002;52.028;5.670;2023-07-08T08:49:55;34.60;57.50
27559;DHT22;15002;52.028;5.670;2023-07-08T08:52:21;34.40;57.80
27559;DHT22;15002;52.028;5.670;2023-07-08T08:54:47;33.70;58.90
27559;DHT22;15002;52.028;5.670;2023-07-08T08:59:54;34.10;60.30
27559;DHT22;15002;52.028;5.670;2023-07-08T09:05:14;34.90;58.60
27559;DHT22;15002;52.028;5.670;2023-07-08T09:10:45;35.30;58.00
27559;DHT22;15002;52.028;5.670;2023-07-08T09:13:21;34.90;58.10
27559;DHT22;15002;52.028;5.670;2023-07-08T09:15:49;34.60;59.40
27559;DHT22;15002;52.028;5.670;2023-07-08T09:18:30;34.20;60.50
27559;DHT22;15002;52.028;5.670;2023-07-08T09:21:00;34.20;60.80
27559;DHT22;15002;52.028;5.670;2023-07-08T09:23:33;34.30;61.60
27559;DHT22;15002;52.028;5.670;2023-07-08T09:26:11;34.20;60.50
27559;DHT22;15002;52.028;5.670;2023-07-08T09:28:41;33.90;62.60
27559;DHT22;15002;52.028;5.670;2023-07-08T09:31:14;34.00;61.10
27559;DHT22;15002;52.028;5.670;2023-07-08T09:33:44;33.90;62.90
27559;DHT22;15002;52.028;5.670;2023-07-08T09:36:23;34.00;63.00
27559;DHT22;15002;52.028;5.670;2023-07-08T09:38:50;34.10;62.20
27559;DHT22;15002;52.028;5.670;2023-07-08T09:41:35;33.90;63.70
27559;DHT22;15002;52.028;5.670;2023-07-08T09:46:41;33.50;63.60
27559;DHT22;15002;52.028;5.670;2023-07-08T09:49:20;33.60;64.10
27559;DHT22;15002;52.028;5.670;2023-07-08T09:51:46;33.60;64.80
27559;DHT22;15002;52.028;5.670;2023-07-08T09:54:12;33.70;65.50
27559;DHT22;15002;52.028;5.670;2023-07-08T09:56:43;33.60;66.00
27559;DHT22;15002;52.028;5.670;2023-07-08T09:59:13;33.30;66.00
27559;DHT22;15002;52.028;5.670;2023-07-08T10:01:42;33.60;64.00
27559;DHT22;15002;52.028;5.670;2023-07-08T10:04:08;33.20;64.00
27559;DHT22;15002;52.028;5.670;2023-07-08T10:06:34;33.30;65.10
27559;DHT22;15002;52.028;5.670;2023-07-08T10:09:09;33.50;63.90
27559;DHT22;15002;52.028;5.670;2023-07-08T10:11:44;33.70;61.70
27559;DHT22;15002;52.028;5.670;2023-07-08T10:14:39;33.60;62.00
27559;DHT22;15002;52.028;5.670;2023-07-08T10:17:03;33.40;64.10
27559;DHT22;15002;52.028;5.670;2023-07-08T10:19:29;33.60;64.00
27559;DHT22;15002;52.028;5.670;2023-07-08T10:22:18;33.80;64.30
27559;DHT22;15002;52.028;5.670;2023-07-08T10:25:09;34.10;64.00
27559;DHT22;15002;52.028;5.670;2023-07-08T10:35:28;33.90;63.30
27559;DHT22;15002;52.028;5.670;2023-07-08T10:38:37;33.80;63.10
27559;DHT22;15002;52.028;5.670;2023-07-08T10:41:10;33.40;65.00
27559;DHT22;15002;52.028;5.670;2023-07-08T10:46:40;33.80;63.60
27559;DHT22;15002;52.028;5.670;2023-07-08T10:49:28;33.90;62.20
27559;DHT22;15002;52.028;5.670;2023-07-08T11:07:45;33.80;63.20
27559;DHT22;15002;52.028;5.670;2023-07-08T11:10:32;33.70;63.10
27559;DHT22;15002;52.028;5.670;2023-07-08T11:13:10;33.30;62.30
27559;DHT22;15002;52.028;5.670;2023-07-08T11:18:16;33.50;60.30
27559;DHT22;15002;52.028;5.670;2023-07-08T11:26:28;33.50;61.40
27559;DHT22;15002;52.028;5.670;2023-07-08T11:28:58;33.50;62.40
27559;DHT22;15002;52.028;5.670;2023-07-08T11:31:26;33.60;62.00
27559;DHT22;15002;52.028;5.670;2023-07-08T11:33:54;33.80;61.20
27559;DHT22;15002;52.028;5.670;2023-07-08T11:36:21;33.70;60.90
27559;DHT22;15002;52.028;5.670;2023-07-08T11:38:48;33.50;60.60
27559;DHT22;15002;52.028;5.670;2023-07-08T11:41:17;33.70;60.40
27559;DHT22;15002;52.028;5.670;2023-07-08T11:43:50;33.50;61.20
27559;DHT22;15002;52.028;5.670;2023-07-08T11:46:22;33.50;61.30
27559;DHT22;15002;52.028;5.670;2023-07-08T11:48:52;33.80;60.50
27559;DHT22;15002;52.028;5.670;2023-07-08T11:51:28;33.80;60.30
27559;DHT22;15002;52.028;5.670;2023-07-08T11:56:48;34.20;59.50
27559;DHT22;15002;52.028;5.670;2023-07-08T11:59:19;34.40;59.70
27559;DHT22;15002;52.028;5.670;2023-07-08T12:04:27;34.40;58.80
27559;DHT22;15002;52.028;5.670;2023-07-08T12:09:39;34.00;59.80
27559;DHT22;15002;52.028;5.670;2023-07-08T12:12:58;34.00;60.60
27559;DHT22;15002;52.028;5.670;2023-07-08T12:15:29;33.60;60.80
27559;DHT22;15002;52.028;5.670;2023-07-08T12:17:58;33.60;61.70
27559;DHT22;15002;52.028;5.670;2023-07-08T12:20:30;33.80;62.70
27559;DHT22;15002;52.028;5.670;2023-07-08T12:22:57;34.00;61.50
27559;DHT22;15002;52.028;5.670;2023-07-08T12:25:26;34.10;60.90
27559;DHT22;15002;52.028;5.670;2023-07-08T12:27:52;34.00;61.60
27559;DHT22;15002;52.028;5.670;2023-07-08T12:30:18;33.90;61.30
27559;DHT22;15002;52.028;5.670;2023-07-08T12:32:44;34.00;60.90
27559;DHT22;15002;52.028;5.670;2023-07-08T12:37:52;34.40;59.40
27559;DHT22;15002;52.028;5.670;2023-07-08T12:40:20;34.40;61.30
27559;DHT22;15002;52.028;5.670;2023-07-08T12:42:46;34.20;62.60
27559;DHT22;15002;52.028;5.670;2023-07-08T12:45:15;34.10;62.90
27559;DHT22;15002;52.028;5.670;2023-07-08T12:47:42;34.40;59.40
27559;DHT22;15002;52.028;5.670;2023-07-08T12:50:09;34.50;60.70
27559;DHT22;15002;52.028;5.670;2023-07-08T12:52:35;34.60;61.10
27559;DHT22;15002;52.028;5.670;2023-07-08T12:55:01;34.30;60.50
27559;DHT22;15002;52.028;5.670;2023-07-08T12:57:27;34.30;60.30
27559;DHT22;15002;52.028;5.670;2023-07-08T12:59:52;34.30;59.00
27559;DHT22;15002;52.028;5.670;2023-07-08T13:02:20;34.10;59.80
27559;DHT22;15002;52.028;5.670;2023-07-08T13:04:55;34.30;59.90
27559;DHT22;15002;52.028;5.670;2023-07-08T13:07:39;34.50;59.00
27559;DHT22;15002;52.028;5.670;2023-07-08T13:10:07;34.30;57.40
27559;DHT22;15002;52.028;5.670;2023-07-08T13:12:36;34.30;57.10
27559;DHT22;15002;52.028;5.670;2023-07-08T13:15:06;34.60;57.90
27559;DHT22;15002;52.028;5.670;2023-07-08T13:17:36;34.60;58.60
27559;DHT22;15002;52.028;5.670;2023-07-08T13:20:04;34.20;58.80
27559;DHT22;15002;52.028;5.670;2023-07-08T13:22:30;33.90;58.70
27559;DHT22;15002;52.028;5.670;2023-07-08T13:25:02;34.20;58.00
27559;DHT22;15002;52.028;5.670;2023-07-08T13:27:28;34.30;57.00
27559;DHT22;15002;52.028;5.670;2023-07-08T13:29:56;34.40;56.50
27559;DHT22;15002;52.028;5.670;2023-07-08T13:32:31;34.30;55.10
27559;DHT22;15002;52.028;5.670;2023-07-08T13:34:57;34.70;54.60
27559;DHT22;15002;52.028;5.670;2023-07-08T13:37:23;34.80;54.40
27559;DHT22;15002;52.028;5.670;2023-07-08T13:39:53;34.40;56.50
27559;DHT22;15002;52.028;5.670;2023-07-08T13:42:19;34.70;56.20
27559;DHT22;15002;52.028;5.670;2023-07-08T13:44:46;34.70;56.60
27559;DHT22;15002;52.028;5.670;2023-07-08T13:47:23;34.80;56.40
27559;DHT22;15002;52.028;5.670;2023-07-08T13:50:01;34.90;56.50
27559;DHT22;15002;52.028;5.670;2023-07-08T13:52:30;34.50;55.50
27559;DHT22;15002;52.028;5.670;2023-07-08T13:55:02;34.70;56.80
27559;DHT22;15002;52.028;5.670;2023-07-08T13:57:38;34.80;56.60
27559;DHT22;15002;52.028;5.670;2023-07-08T14:00:05;34.60;56.50
27559;DHT22;15002;52.028;5.670;2023-07-08T14:02:33;34.60;56.60
27559;DHT22;15002;52.028;5.670;2023-07-08T14:05:00;34.60;56.30
27559;DHT22;15002;52.028;5.670;2023-07-08T14:07:32;34.90;55.90
27559;DHT22;15002;52.028;5.670;2023-07-08T14:09:58;34.60;57.10
27559;DHT22;15002;52.028;5.670;2023-07-08T14:12:24;34.70;56.70
27559;DHT22;15002;52.028;5.670;2023-07-08T14:14:50;34.70;56.90
27559;DHT22;15002;52.028;5.670;2023-07-08T14:17:22;34.80;56.90
27559;DHT22;15002;52.028;5.670;2023-07-08T14:19:48;34.70;57.40
27559;DHT22;15002;52.028;5.670;2023-07-08T14:24:40;34.50;57.70
27559;DHT22;15002;52.028;5.670;2023-07-08T14:27:10;34.70;57.40
27559;DHT22;15002;52.028;5.670;2023-07-08T14:29:41;34.60;58.00
27559;DHT22;15002;52.028;5.670;2023-07-08T14:32:15;34.60;57.30
27559;DHT22;15002;52.028;5.670;2023-07-08T14:34:49;34.60;57.30
27559;DHT22;15002;52.028;5.670;2023-07-08T14:37:15;34.50;57.50
27559;DHT22;15002;52.028;5.670;2023-07-08T14:39:43;34.60;57.10
27559;DHT22;15002;52.028;5.670;2023-07-08T14:42:11;34.60;57.00
27559;DHT22;15002;52.028;5.670;2023-07-08T14:44:38;34.80;58.00
27559;DHT22;15002;52.028;5.670;2023-07-08T14:47:14;34.90;56.60
27559;DHT22;15002;52.028;5.670;2023-07-08T14:49:40;34.70;56.80
27559;DHT22;15002;52.028;5.670;2023-07-08T14:52:07;34.80;57.30
27559;DHT22;15002;52.028;5.670;2023-07-08T14:54:32;34.90;56.70
27559;DHT22;15002;52.028;5.670;2023-07-08T14:56:59;35.00;56.60
27559;DHT22;15002;52.028;5.670;2023-07-08T14:59:27;35.00;57.00
27559;DHT22;15002;52.028;5.670;2023-07-08T15:01:55;35.20;56.40
27559;DHT22;15002;52.028;5.670;2023-07-08T15:04:21;35.20;55.30
27559;DHT22;15002;52.028;5.670;2023-07-08T15:06:47;34.90;55.70
27559;DHT22;15002;52.028;5.670;2023-07-08T15:09:14;34.90;56.60
27559;DHT22;15002;52.028;5.670;2023-07-08T15:11:42;35.10;56.00
27559;DHT22;15002;52.028;5.670;2023-07-08T15:16:43;34.90;56.50
27559;DHT22;15002;52.028;5.670;2023-07-08T15:19:11;35.00;56.00
27559;DHT22;15002;52.028;5.670;2023-07-08T15:21:38;35.10;56.50
27559;DHT22;15002;52.028;5.670;2023-07-08T15:24:08;35.20;56.40
27559;DHT22;15002;52.028;5.670;2023-07-08T15:26:33;35.20;55.30
27559;DHT22;15002;52.028;5.670;2023-07-08T15:28:59;35.30;55.60
27559;DHT22;15002;52.028;5.670;2023-07-08T15:31:27;35.30;55.40
27559;DHT22;15002;52.028;5.670;2023-07-08T15:33:53;35.30;55.50
27559;DHT22;15002;52.028;5.670;2023-07-08T15:36:19;35.60;55.30
27559;DHT22;15002;52.028;5.670;2023-07-08T15:38:45;35.30;55.00
27559;DHT22;15002;52.028;5.670;2023-07-08T15:41:30;35.20;55.40
27559;DHT22;15002;52.028;5.670;2023-07-08T15:43:56;35.10;55.70
27559;DHT22;15002;52.028;5.670;2023-07-08T15:46:27;35.10;56.10
27559;DHT22;15002;52.028;5.670;2023-07-08T15:48:54;35.10;55.80
27559;DHT22;15002;52.028;5.670;2023-07-08T15:51:19;35.20;56.30
27559;DHT22;15002;52.028;5.670;2023-07-08T15:53:45;35.50;54.50
27559;DHT22;15002;52.028;5.670;2023-07-08T15:56:13;35.40;54.10
27559;DHT22;15002;52.028;5.670;2023-07-08T15:58:41;35.30;54.50
27559;DHT22;15002;52.028;5.670;2023-07-08T16:01:13;35.10;54.60
27559;DHT22;15002;52.028;5.670;2023-07-08T16:03:41;35.00;55.80
27559;DHT22;15002;52.028;5.670;2023-07-08T16:06:08;35.10;54.40
27559;DHT22;15002;52.028;5.670;2023-07-08T16:08:34;35.00;55.20
27559;DHT22;15002;52.028;5.670;2023-07-08T16:11:04;35.10;55.10
27559;DHT22;15002;52.028;5.670;2023-07-08T16:13:37;34.90;56.50
27559;DHT22;15002;52.028;5.670;2023-07-08T16:16:03;34.90;56.70
27559;DHT22;15002;52.028;5.670;2023-07-08T16:18:29;35.10;56.70
27559;DHT22;15002;52.028;5.670;2023-07-08T16:20:55;35.30;55.90
27559;DHT22;15002;52.028;5.670;2023-07-08T16:23:21;35.50;55.50
27559;DHT22;15002;52.028;5.670;2023-07-08T16:25:49;35.20;56.00
27559;DHT22;15002;52.028;5.670;2023-07-08T16:28:28;35.30;55.70
27559;DHT22;15002;52.028;5.670;2023-07-08T16:30:55;35.40;56.10
27559;DHT22;15002;52.028;5.670;2023-07-08T16:33:21;35.30;57.10
27559;DHT22;15002;52.028;5.670;2023-07-08T16:35:47;35.40;56.70
27559;DHT22;15002;52.028;5.670;2023-07-08T16:38:13;35.20;56.80
27559;DHT22;15002;52.028;5.670;2023-07-08T16:40:40;35.30;57.20
27559;DHT22;15002;52.028;5.670;2023-07-08T16:43:27;35.10;57.90
27559;DHT22;15002;52.028;5.670;2023-07-08T16:45:53;35.20;57.30